createdAt,value
2018-09-04T00:02:07.929Z,102206.17
2018-09-04T00:04:36.965Z,102209.19
2018-09-04T00:07:06.283Z,102200.41
2018-09-04T00:09:35.346Z,102195.45
2018-09-04T00:12:04.440Z,102200.97
2018-09-04T00:14:33.529Z,102203.16
2018-09-04T00:17:02.654Z,102201.79
2018-09-04T00:19:31.648Z,102201.78
2018-09-04T00:22:00.681Z,102197.14
2018-09-04T00:24:29.694Z,102202.91
2018-09-04T00:26:58.758Z,102194.95
2018-09-04T00:29:27.771Z,102197.95
2018-09-04T00:31:56.803Z,102199.05
2018-09-04T00:34:25.959Z,102199.03
2018-09-04T00:36:56.972Z,102202.07
2018-09-04T00:39:25.989Z,102208.09
2018-09-04T00:41:55.011Z,102206.18
2018-09-04T00:44:24.049Z,102208.36
2018-09-04T00:46:53.071Z,102210.58
2018-09-04T00:49:22.061Z,102203.16
2018-09-04T00:51:51.174Z,102206.73
2018-09-04T00:54:20.188Z,102206.71
2018-09-04T00:56:49.409Z,102201.77
2018-09-04T00:59:18.426Z,102197.09
2018-09-04T01:01:47.516Z,102202.05
2018-09-04T01:04:16.749Z,102200.94
2018-09-04T01:06:45.785Z,102197.08
2018-09-04T01:09:23.542Z,102194.04
2018-09-04T01:11:53.273Z,102191.04
2018-09-04T01:14:22.314Z,102197.61
2018-09-04T01:16:51.370Z,102195.17
2018-09-04T01:19:20.572Z,102189.69
2018-09-04T01:21:49.596Z,102190.24
2018-09-04T01:24:18.732Z,102193.27
2018-09-04T01:26:47.774Z,102194.92
2018-09-04T01:29:16.965Z,102189.95
2018-09-04T01:31:45.935Z,102197.13
2018-09-04T01:34:14.952Z,102197.38
2018-09-04T01:36:44.019Z,102194.32
2018-09-04T01:39:13.093Z,102194.05
2018-09-04T01:41:48.741Z,102194.56
2018-09-04T01:44:17.846Z,102195.66
2018-09-04T01:46:46.985Z,102190.72
2018-09-04T01:49:16.010Z,102188.48
2018-09-04T01:51:45.005Z,102198.39
2018-09-04T01:54:13.996Z,102192.61
2018-09-04T01:56:43.112Z,102191.78
2018-09-04T01:59:12.084Z,102195.09
2018-09-04T02:01:41.088Z,102192.61
2018-09-04T02:04:10.096Z,102189.59
2018-09-04T02:06:39.096Z,102192.39
2018-09-04T02:09:08.564Z,102181.16
2018-09-04T02:11:38.744Z,102190.78
2018-09-04T02:14:07.800Z,102191.08
2018-09-04T02:16:36.882Z,102182.83
2018-09-04T02:19:06.324Z,102188.87
2018-09-04T02:21:35.337Z,102189.42
2018-09-04T02:24:04.335Z,102191.06
2018-09-04T02:26:33.289Z,102192.72
2018-09-04T02:29:02.336Z,102193.80
2018-09-04T02:31:31.329Z,102207.80
2018-09-04T02:34:00.326Z,102202.06
2018-09-04T02:36:29.384Z,102204.80
2018-09-04T02:38:59.771Z,102192.98
2018-09-04T02:41:28.809Z,102205.89
2018-09-04T02:43:58.309Z,102198.20
2018-09-04T02:46:27.310Z,102195.45
2018-09-04T02:48:56.379Z,102200.39
2018-09-04T02:51:25.368Z,102200.13
2018-09-04T02:53:54.729Z,102191.91
2018-09-04T02:56:23.722Z,102195.48
2018-09-04T02:58:52.799Z,102186.16
2018-09-04T03:01:21.896Z,102194.66
2018-09-04T03:03:50.970Z,102192.20
2018-09-04T03:06:20.700Z,102195.51
2018-09-04T03:08:49.721Z,102198.80
2018-09-04T03:11:18.717Z,102196.58
2018-09-04T03:13:47.895Z,102185.07
2018-09-04T03:16:17.489Z,102186.16
2018-09-04T03:18:46.482Z,102178.48
2018-09-04T03:21:15.459Z,102183.42
2018-09-04T03:23:44.429Z,102182.58
2018-09-04T03:26:13.853Z,102184.80
2018-09-04T03:28:42.826Z,102181.52
2018-09-04T03:31:11.859Z,102177.11
2018-09-04T03:33:41.447Z,102176.00
2018-09-04T03:36:10.502Z,102175.73
2018-09-04T03:38:39.491Z,102178.48
2018-09-04T03:41:08.524Z,102174.09
2018-09-04T03:43:37.536Z,102171.07
2018-09-04T03:46:07.316Z,102174.62
2018-09-04T03:48:36.500Z,102173.25
2018-09-04T03:51:05.613Z,102174.11
2018-09-04T03:53:34.601Z,102163.67
2018-09-04T03:56:03.678Z,102166.42
2018-09-04T03:58:32.638Z,102168.86
2018-09-04T04:01:01.758Z,102172.17
2018-09-04T04:03:30.732Z,102170.79
2018-09-04T04:05:59.811Z,102172.45
2018-09-04T04:08:28.784Z,102171.35
2018-09-04T04:10:57.936Z,102171.91
2018-09-04T04:13:27.060Z,102167.23
2018-09-04T04:15:56.054Z,102165.57
2018-09-04T04:18:25.123Z,102161.73
2018-09-04T04:20:58.205Z,102160.38
2018-09-04T04:23:28.096Z,102158.98
2018-09-04T04:25:58.446Z,102152.69
2018-09-04T04:28:27.440Z,102150.48
2018-09-04T04:30:56.462Z,102153.52
2018-09-04T04:33:25.437Z,102149.11
2018-09-04T04:35:54.449Z,102151.57
2018-09-04T04:38:23.479Z,102156.23
2018-09-04T04:40:53.548Z,102156.52
2018-09-04T04:43:22.514Z,102157.08
2018-09-04T04:45:51.567Z,102157.07
2018-09-04T04:48:20.768Z,102159.00
2018-09-04T04:50:49.721Z,102158.71
2018-09-04T04:53:18.916Z,102158.17
2018-09-04T04:55:47.972Z,102152.97
2018-09-04T04:58:17.314Z,102162.83
2018-09-04T05:00:47.310Z,102148.84
2018-09-04T05:03:16.312Z,102155.14
2018-09-04T05:05:45.449Z,102162.83
2018-09-04T05:08:15.329Z,102160.62
2018-09-04T05:10:44.355Z,102157.58
2018-09-04T05:13:13.500Z,102164.44
2018-09-04T05:15:42.579Z,102161.67
2018-09-04T05:18:11.718Z,102163.62
2018-09-04T05:20:40.828Z,102168.27
2018-09-04T05:23:09.910Z,102171.27
2018-09-04T05:25:38.987Z,102172.11
2018-09-04T05:28:08.023Z,102171.57
2018-09-04T05:30:37.326Z,102169.65
2018-09-04T05:33:12.592Z,102167.16
2018-09-04T05:35:44.992Z,102171.57
2018-09-04T05:38:14.108Z,102172.37
2018-09-04T05:40:43.550Z,102175.66
2018-09-04T05:43:16.979Z,102174.30
2018-09-04T05:45:46.182Z,102166.59
2018-09-04T05:48:16.496Z,102168.80
2018-09-04T05:50:45.512Z,102172.37
2018-09-04T05:53:16.911Z,102173.46
2018-09-04T05:55:46.077Z,102175.95
2018-09-04T05:58:16.660Z,102173.45
2018-09-04T06:00:48.577Z,102170.19
2018-09-04T06:03:18.926Z,102169.91
2018-09-04T06:05:47.915Z,102178.98
2018-09-04T06:08:16.937Z,102176.48
2018-09-04T06:10:47.150Z,102180.07
2018-09-04T06:13:16.204Z,102185.55
2018-09-04T06:15:45.232Z,102187.20
2018-09-04T06:18:14.322Z,102189.95
2018-09-04T06:20:43.605Z,102182.25
2018-09-04T06:23:12.620Z,102191.84
2018-09-04T06:25:41.714Z,102187.75
2018-09-04T06:28:10.730Z,102185.52
2018-09-04T06:30:41.558Z,102175.36
2018-09-04T06:33:10.540Z,102178.91
2018-09-04T06:35:39.592Z,102181.92
2018-09-04T06:38:08.612Z,102187.34
2018-09-04T06:40:38.685Z,102178.90
2018-09-04T06:43:07.733Z,102171.74
2018-09-04T06:45:36.821Z,102176.63
2018-09-04T06:48:05.939Z,102176.70
2018-09-04T06:50:35.163Z,102179.94
2018-09-04T06:53:04.256Z,102171.23
2018-09-04T06:55:33.307Z,102172.69
2018-09-04T06:58:02.384Z,102170.17
2018-09-04T07:00:31.480Z,102167.92
2018-09-04T07:03:13.333Z,102163.68
2018-09-04T07:05:43.208Z,102165.27
2018-09-04T07:08:12.303Z,102165.95
2018-09-04T07:10:41.808Z,102163.39
2018-09-04T07:13:10.904Z,102164.94
2018-09-04T07:15:40.358Z,102168.43
2018-09-04T07:18:09.397Z,102169.66
2018-09-04T07:20:38.459Z,102168.73
2018-09-04T07:23:08.362Z,102180.33
2018-09-04T07:25:37.381Z,102188.40
2018-09-04T07:28:06.562Z,102176.20
2018-09-04T07:30:35.653Z,102176.02
2018-09-04T07:33:05.564Z,102179.84
2018-09-04T07:35:34.542Z,102178.84
2018-09-04T07:38:03.650Z,102183.04
2018-09-04T07:40:32.724Z,102176.48
2018-09-04T07:43:02.239Z,102185.36
2018-09-04T07:45:31.526Z,102185.41
2018-09-04T07:48:34.715Z,102183.98
2018-09-04T07:51:03.754Z,102190.04
2018-09-04T07:53:32.831Z,102184.83
2018-09-04T07:56:09.084Z,102185.36
2018-09-04T07:58:40.483Z,102183.84
2018-09-04T08:01:09.570Z,102191.85
2018-09-04T08:03:39.509Z,102183.03
2018-09-04T08:13:45.957Z,102185.22
2018-09-04T08:16:15.072Z,102191.55
2018-09-04T08:18:45.351Z,102193.61
2018-09-04T08:21:14.654Z,102195.61
2018-09-04T08:23:43.842Z,102192.00
2018-09-04T08:26:13.341Z,102192.95
2018-09-04T08:28:43.459Z,102202.53
2018-09-04T08:31:12.475Z,102196.00
2018-09-04T08:33:41.755Z,102197.89
2018-09-04T08:36:11.112Z,102191.71
2018-09-04T08:38:45.296Z,102184.13
2018-09-04T08:41:14.538Z,102186.66
2018-09-04T08:43:43.883Z,102184.75
2018-09-04T08:46:13.911Z,102178.98
2018-09-04T08:48:43.102Z,102184.77
2018-09-04T08:51:12.196Z,102185.87
2018-09-04T08:56:40.796Z,102181.44
2018-09-04T08:59:19.606Z,102181.14
2018-09-04T09:01:48.921Z,102184.15
2018-09-04T09:04:19.075Z,102184.89
2018-09-04T09:06:48.110Z,102179.84
2018-09-04T09:09:17.322Z,102184.52
2018-09-04T09:11:46.584Z,102186.48
2018-09-04T09:14:15.757Z,102184.84
2018-09-04T09:16:45.447Z,102185.14
2018-09-04T09:19:14.945Z,102181.00
2018-09-04T09:21:44.080Z,102184.80
2018-09-04T09:24:13.226Z,102181.46
2018-09-04T09:26:43.017Z,102182.20
2018-09-04T09:29:12.146Z,102183.42
2018-09-04T09:31:41.975Z,102183.95
2018-09-04T09:34:12.404Z,102181.27
2018-09-04T09:36:44.618Z,102181.78
2018-09-04T09:39:28.366Z,102182.57
2018-09-04T09:45:01.220Z,102179.28
2018-09-04T09:47:31.519Z,102177.36
2018-09-04T09:50:01.323Z,102181.72
2018-09-04T09:52:32.351Z,102181.63
2018-09-04T09:57:30.821Z,102185.10
2018-09-04T10:00:00.768Z,102182.95
2018-09-04T10:02:35.727Z,102178.34
2018-09-04T10:05:05.238Z,102175.31
2018-09-04T10:07:35.113Z,102182.95
2018-09-04T10:10:04.106Z,102171.92
2018-09-04T10:12:50.585Z,102176.88
2018-09-04T10:15:23.823Z,102182.92
2018-09-04T10:17:59.597Z,102182.65
2018-09-04T10:20:35.683Z,102177.94
2018-09-04T10:23:06.388Z,102183.56
2018-09-04T10:25:38.175Z,102188.02
2018-09-04T10:28:08.960Z,102187.54
2018-09-04T10:30:38.796Z,102182.87
2018-09-04T10:33:10.182Z,102180.64
2018-09-04T10:35:40.435Z,102186.71
2018-09-04T10:38:09.733Z,102184.78
2018-09-04T10:40:39.360Z,102194.06
2018-09-04T10:43:08.429Z,102183.70
2018-09-04T10:45:42.949Z,102189.97
2018-09-04T10:48:14.272Z,102181.91
2018-09-04T10:50:43.403Z,102187.43
2018-09-04T10:53:12.555Z,102185.83
2018-09-04T10:55:41.747Z,102187.95
2018-09-04T10:58:12.611Z,102178.49
2018-09-04T11:00:42.185Z,102182.48
2018-09-04T11:03:11.337Z,102189.27
2018-09-04T11:05:40.503Z,102185.10
2018-09-04T11:08:09.906Z,102176.13
2018-09-04T11:10:39.184Z,102172.81
2018-09-04T11:13:08.818Z,102177.47
2018-09-04T11:15:37.957Z,102172.90
2018-09-04T11:18:07.498Z,102170.17
2018-09-04T11:20:36.667Z,102170.14
2018-09-04T11:23:07.021Z,102176.95
2018-09-04T11:25:37.997Z,102174.95
2018-09-04T11:28:08.644Z,102175.75
2018-09-04T11:30:43.334Z,102174.89
2018-09-04T11:33:15.027Z,102177.78
2018-09-04T11:35:46.614Z,102174.61
2018-09-04T11:38:24.153Z,102176.66
2018-09-04T11:40:54.758Z,102170.48
2018-09-04T11:43:24.987Z,102179.05
2018-09-04T11:45:54.531Z,102182.40
2018-09-04T11:48:43.992Z,102176.97
2018-09-04T11:51:13.277Z,102170.83
2018-09-04T11:53:42.460Z,102166.95
2018-09-04T11:56:11.855Z,102171.34
2018-09-04T11:58:41.367Z,102161.98
2018-09-04T12:01:13.245Z,102173.10
2018-09-04T12:03:43.121Z,102165.92
2018-09-04T12:06:14.113Z,102160.91
2018-09-04T12:08:44.573Z,102161.53
2018-09-04T12:11:17.793Z,102162.39
2018-09-04T12:13:47.489Z,102161.08
2018-09-04T12:16:48.403Z,102162.64
2018-09-04T12:19:17.925Z,102163.86
2018-09-04T12:21:47.210Z,102162.99
2018-09-04T12:24:16.319Z,102162.81
2018-09-04T12:26:45.659Z,102161.40
2018-09-04T12:29:14.695Z,102162.09
2018-09-04T12:31:43.915Z,102162.92
2018-09-04T12:34:13.113Z,102163.86
2018-09-04T12:36:43.663Z,102164.09
2018-09-04T12:39:13.703Z,102165.14
2018-09-04T12:41:42.874Z,102160.16
2018-09-04T12:44:12.936Z,102155.47
2018-09-04T12:46:42.141Z,102156.29
2018-09-04T12:49:11.422Z,102153.46
2018-09-04T12:51:40.760Z,102157.78
2018-09-04T12:54:10.248Z,102153.36
2018-09-04T12:56:40.541Z,102151.22
2018-09-04T12:59:13.479Z,102158.47
2018-09-04T13:01:47.023Z,102160.72
2018-09-04T13:04:16.959Z,102162.89
2018-09-04T13:06:46.105Z,102152.59
2018-09-04T13:09:22.658Z,102158.95
2018-09-04T13:11:52.169Z,102161.20
2018-09-04T13:14:21.595Z,102160.68
2018-09-04T13:16:50.844Z,102156.23
2018-09-04T13:19:20.070Z,102161.23
2018-09-04T13:21:50.227Z,102157.09
2018-09-04T13:24:19.361Z,102154.60
2018-09-04T13:26:48.640Z,102165.37
2018-09-04T13:29:17.672Z,102158.47
2018-09-04T13:31:46.753Z,102152.59
2018-09-04T13:34:16.526Z,102150.59
2018-09-04T13:36:45.815Z,102147.24
2018-09-04T13:39:14.978Z,102143.13
2018-09-04T13:41:45.318Z,102158.20
2018-09-04T13:44:14.644Z,102155.67
2018-09-04T13:46:44.636Z,102155.87
2018-09-04T13:49:14.051Z,102158.09
2018-09-04T13:51:43.967Z,102150.59
2018-09-04T13:54:13.058Z,102145.06
2018-09-04T13:56:42.321Z,102148.77
2018-09-04T13:59:11.458Z,102156.02
2018-09-04T14:01:41.004Z,102143.69
2018-09-04T14:04:10.069Z,102156.77
2018-09-04T14:06:41.276Z,102152.11
2018-09-04T14:09:13.138Z,102149.10
2018-09-04T14:11:42.765Z,102150.70
2018-09-04T14:14:12.386Z,102146.24
2018-09-04T14:16:43.582Z,102142.96
2018-09-04T14:19:11.181Z,102141.78
2018-09-04T14:21:40.410Z,102151.48
2018-09-04T14:24:16.002Z,102146.65
2018-09-04T14:26:46.234Z,102145.82
2018-09-04T14:29:53.165Z,102144.09
2018-09-04T14:31:44.928Z,102145.76
2018-09-04T14:34:14.090Z,102143.34
2018-09-04T14:36:43.270Z,102149.72
2018-09-04T14:39:12.278Z,102156.01
2018-09-04T14:41:41.563Z,102152.63
2018-09-04T14:44:11.374Z,102146.48
2018-09-04T14:46:41.774Z,102148.52
2018-09-04T14:49:10.969Z,102146.66
2018-09-04T14:51:42.529Z,102146.72
2018-09-04T14:54:12.136Z,102142.94
2018-09-04T14:56:42.178Z,102148.36
2018-09-04T14:59:12.638Z,102142.59
2018-09-04T15:01:42.268Z,102142.42
2018-09-04T15:04:11.636Z,102144.43
2018-09-04T15:06:40.831Z,102142.22
2018-09-04T15:09:09.939Z,102136.48
2018-09-04T15:11:40.080Z,102144.54
2018-09-04T15:14:09.886Z,102136.05
2018-09-04T15:16:39.037Z,102139.98
2018-09-04T15:19:08.077Z,102141.96
2018-09-04T15:21:37.347Z,102141.81
2018-09-04T15:24:06.653Z,102143.89
2018-09-04T15:26:35.803Z,102145.58
2018-09-04T15:29:04.928Z,102145.89
2018-09-04T15:31:38.490Z,102140.38
2018-09-04T15:34:07.749Z,102133.09
2018-09-04T15:36:36.852Z,102137.09
2018-09-04T15:39:06.875Z,102135.05
2018-09-04T15:41:37.096Z,102138.84
2018-09-04T15:44:06.479Z,102143.72
2018-09-04T15:46:35.493Z,102148.06
2018-09-04T15:49:09.578Z,102135.73
2018-09-04T15:51:38.939Z,102140.43
2018-09-04T15:54:07.979Z,102147.34
2018-09-04T15:56:37.076Z,102151.91
2018-09-04T15:59:06.292Z,102149.48
2018-09-04T16:01:35.388Z,102143.79
2018-09-04T16:04:04.523Z,102144.14
2018-09-04T16:06:33.651Z,102154.70
2018-09-04T16:09:13.439Z,102150.39
2018-09-04T16:11:44.685Z,102150.55
2018-09-04T16:14:14.116Z,102155.13
2018-09-04T16:16:43.363Z,102141.48
2018-09-04T16:19:13.355Z,102149.34
2018-09-04T16:21:42.545Z,102152.09
2018-09-04T16:29:36.588Z,102153.73
2018-09-04T16:32:06.598Z,102156.00
2018-09-04T16:34:35.874Z,102152.87
2018-09-04T16:37:06.068Z,102153.30
2018-09-04T16:39:35.195Z,102152.09
2018-09-04T16:42:04.371Z,102150.09
2018-09-04T16:44:33.441Z,102145.82
2018-09-04T16:47:02.519Z,102146.55
2018-09-04T16:49:31.914Z,102146.20
2018-09-04T16:52:05.845Z,102151.15
2018-09-04T16:54:35.045Z,102155.30
2018-09-04T16:57:04.885Z,102142.41
2018-09-04T16:59:33.943Z,102145.20
2018-09-04T17:02:03.002Z,102139.50
2018-09-04T17:04:32.404Z,102137.08
2018-09-04T17:07:01.405Z,102137.95
2018-09-04T17:09:30.487Z,102141.02
2018-09-04T17:11:59.861Z,102131.69
2018-09-04T17:14:28.876Z,102142.19
2018-09-04T17:16:58.487Z,102141.91
2018-09-04T17:19:28.851Z,102139.73
2018-09-04T17:21:58.399Z,102142.77
2018-09-04T17:24:27.559Z,102142.31
2018-09-04T17:26:56.652Z,102147.01
2018-09-04T17:29:26.393Z,102144.06
2018-09-04T17:31:55.528Z,102150.81
2018-09-04T17:34:24.586Z,102148.36
2018-09-04T17:36:53.804Z,102137.56
2018-09-04T17:39:22.871Z,102144.98
2018-09-04T17:41:51.940Z,102146.15
2018-09-04T17:44:23.121Z,102143.20
2018-09-04T17:46:53.079Z,102139.13
2018-09-04T17:49:22.277Z,102140.53
2018-09-04T17:51:51.389Z,102136.73
2018-09-04T17:54:20.455Z,102137.89
2018-09-04T17:56:49.588Z,102135.73
2018-09-04T17:59:18.723Z,102136.05
2018-09-04T18:01:47.793Z,102138.84
2018-09-04T18:04:16.893Z,102142.51
2018-09-04T18:06:47.118Z,102138.67
2018-09-04T18:09:20.164Z,102140.05
2018-09-04T18:11:49.280Z,102139.16
2018-09-04T18:14:18.434Z,102142.20
2018-09-04T18:16:47.553Z,102148.58
2018-09-04T18:19:16.918Z,102142.87
2018-09-04T18:21:46.213Z,102145.16
2018-09-04T18:24:16.018Z,102148.80
2018-09-04T18:26:45.192Z,102152.98
2018-09-04T18:29:14.357Z,102152.16
2018-09-04T18:31:43.510Z,102149.47
2018-09-04T18:34:13.918Z,102148.42
2018-09-04T18:36:43.702Z,102151.25
2018-09-04T18:39:12.737Z,102154.70
2018-09-04T18:41:41.864Z,102150.64
2018-09-04T18:44:11.131Z,102148.73
2018-09-04T18:49:17.216Z,102159.34
2018-09-04T18:51:46.360Z,102165.22
2018-09-04T18:54:16.295Z,102168.59
2018-09-04T18:56:45.491Z,102175.27
2018-09-04T18:59:14.661Z,102170.95
2018-09-04T19:01:43.825Z,102179.28
2018-09-04T19:04:12.891Z,102189.54
2018-09-04T19:06:46.174Z,102189.61
2018-09-04T19:09:15.259Z,102199.86
2018-09-04T19:11:44.498Z,102202.34
2018-09-04T19:14:13.643Z,102196.05
2018-09-04T19:16:42.791Z,102201.55
2018-09-04T19:19:11.905Z,102207.08
2018-09-04T19:21:41.069Z,102204.62
2018-09-04T19:24:10.414Z,102208.47
2018-09-04T19:26:39.448Z,102207.38
2018-09-04T19:29:08.521Z,102213.44
2018-09-04T19:31:38.034Z,102209.05
2018-09-04T19:34:07.376Z,102212.10
2018-09-04T19:36:36.561Z,102212.95
2018-09-04T19:39:07.027Z,102219.83
2018-09-04T19:41:36.454Z,102222.05
2018-09-04T19:44:05.569Z,102215.99
2018-09-04T19:46:34.603Z,102220.96
2018-09-04T19:49:03.804Z,102220.97
2018-09-04T19:51:32.936Z,102222.05
2018-09-04T19:54:04.374Z,102221.80
2018-09-04T19:56:35.705Z,102222.30
2018-09-04T19:59:05.693Z,102227.80
2018-09-04T20:01:36.255Z,102229.71
2018-09-04T20:04:05.481Z,102236.84
2018-09-04T20:06:34.757Z,102240.67
2018-09-04T20:09:04.210Z,102240.97
2018-09-04T20:11:33.558Z,102234.98
2018-09-04T20:14:02.676Z,102240.78
2018-09-04T20:16:32.053Z,102246.34
2018-09-04T20:19:01.225Z,102243.10
2018-09-04T20:21:30.320Z,102248.11
2018-09-04T20:23:59.424Z,102242.61
2018-09-04T20:26:28.592Z,102251.16
2018-09-04T20:28:57.695Z,102250.33
2018-09-04T20:31:26.744Z,102254.45
2018-09-04T20:33:55.984Z,102253.08
2018-09-04T20:36:25.095Z,102254.75
2018-09-04T20:38:54.739Z,102259.67
2018-09-04T20:41:24.024Z,102257.45
2018-09-04T20:43:53.297Z,102261.04
2018-09-04T20:46:23.340Z,102263.80
2018-09-04T20:48:53.037Z,102268.27
2018-09-04T20:51:22.049Z,102264.42
2018-09-04T20:53:51.194Z,102271.56
2018-09-04T20:56:20.273Z,102265.52
2018-09-04T20:59:02.171Z,102268.01
2018-09-04T21:01:42.199Z,102261.38
2018-09-04T21:04:54.705Z,102252.88
2018-09-04T21:08:41.923Z,102260.01
2018-09-04T21:11:11.111Z,102258.33
2018-09-04T21:13:40.245Z,102258.88
2018-09-04T21:16:09.386Z,102259.95
2018-09-04T21:18:38.532Z,102255.23
2018-09-04T21:21:07.880Z,102259.63
2018-09-04T21:23:36.987Z,102260.74
2018-09-04T21:26:07.087Z,102259.38
2018-09-04T21:28:36.985Z,102261.05
2018-09-04T21:31:06.161Z,102265.22
2018-09-04T21:33:35.342Z,102266.30
2018-09-04T21:36:04.562Z,102259.96
2018-09-04T21:41:26.838Z,102250.63
2018-09-04T21:44:00.023Z,102257.25
2018-09-04T21:46:29.102Z,102257.84
2018-09-04T21:48:58.556Z,102256.71
2018-09-04T21:51:27.766Z,102253.95
2018-09-04T21:53:57.105Z,102253.37
2018-09-04T21:56:26.265Z,102261.09
2018-09-04T21:58:55.389Z,102261.33
2018-09-04T22:01:25.892Z,102261.88
2018-09-04T22:03:55.077Z,102265.17
2018-09-04T22:06:24.177Z,102264.63
2018-09-04T22:08:54.325Z,102266.84
2018-09-04T22:11:23.456Z,102257.75
2018-09-04T22:13:52.580Z,102254.41
2018-09-04T22:16:22.565Z,102257.95
2018-09-04T22:19:08.865Z,102259.33
2018-09-04T22:21:56.215Z,102257.95
2018-09-04T22:24:29.753Z,102264.30
2018-09-04T22:26:59.965Z,102260.45
2018-09-04T22:29:42.236Z,102267.28
2018-09-04T22:32:28.045Z,102265.61
2018-09-04T22:35:14.676Z,102265.02
2018-09-04T22:38:02.331Z,102268.02
2018-09-04T22:40:43.841Z,102274.90
2018-09-04T22:43:28.349Z,102275.99
2018-09-04T22:45:57.837Z,102279.05
2018-09-04T22:48:27.437Z,102274.37
2018-09-04T22:51:45.001Z,102276.28
2018-09-04T22:54:14.500Z,102270.77
2018-09-04T22:56:58.906Z,102274.31
2018-09-04T22:59:29.052Z,102272.34
2018-09-04T23:01:58.261Z,102274.01
2018-09-04T23:05:20.691Z,102272.05
2018-09-04T23:08:03.437Z,102268.27
2018-09-04T23:10:51.532Z,102270.23
2018-09-04T23:13:20.590Z,102276.58
2018-09-04T23:15:50.032Z,102269.16
2018-09-04T23:18:19.191Z,102271.95
2018-09-04T23:20:48.257Z,102267.58
2018-09-04T23:23:17.321Z,102268.42
2018-09-04T23:25:46.417Z,102266.80
2018-09-04T23:28:15.485Z,102271.52
2018-09-04T23:30:44.674Z,102275.69
2018-09-04T23:33:13.889Z,102264.75
2018-09-04T23:35:44.335Z,102275.81
2018-09-04T23:38:13.398Z,102269.80
2018-09-04T23:40:42.451Z,102272.59
2018-09-04T23:43:11.577Z,102269.88
2018-09-04T23:45:40.671Z,102274.00
2018-09-04T23:48:13.568Z,102271.53
2018-09-04T23:50:42.961Z,102275.98
2018-09-04T23:53:12.054Z,102277.92
2018-09-04T23:55:41.142Z,102270.25
2018-09-04T23:58:10.240Z,102281.81
